sensor_id;sensor_type;location;lat;lon;timestamp;temperature;humidity
21121;DHT22;12519;43.318;21.898;2023-05-15T00:00:29;16.0;96.0
21121;DHT22;12519;43.318;21.898;2023-05-15T00:05:07;16.0;96.0
21121;DHT22;12519;43.318;21.898;2023-05-15T00:09:44;16.0;96.0
21121;DHT22;12519;43.318;21.898;2023-05-15T00:14:20;16.0;96.0
21121;DHT22;12519;43.318;21.898;2023-05-15T00:18:56;16.0;96.0
21121;DHT22;12519;43.318;21.898;2023-05-15T00:23:33;16.0;96.0
21121;DHT22;12519;43.318;21.898;2023-05-15T00:28:09;16.0;96.0
21121;DHT22;12519;43.318;21.898;2023-05-15T00:32:45;16.0;96.0
21121;DHT22;12519;43.318;21.898;2023-05-15T00:37:23;16.0;96.0
21121;DHT22;12519;43.318;21.898;2023-05-15T00:42:02;16.0;96.0
21121;DHT22;12519;43.318;21.898;2023-05-15T00:46:47;15.9;96.0
21121;DHT22;12519;43.318;21.898;2023-05-15T00:51:28;15.9;96.0
21121;DHT22;12519;43.318;21.898;2023-05-15T00:56:09;15.8;96.0
21121;DHT22;12519;43.318;21.898;2023-05-15T01:00:51;15.8;96.0
21121;DHT22;12519;43.318;21.898;2023-05-15T01:05:29;15.7;96.0
21121;DHT22;12519;43.318;21.898;2023-05-15T01:10:10;15.7;96.0
21121;DHT22;12519;43.318;21.898;2023-05-15T01:14:49;15.7;96.0
21121;DHT22;12519;43.318;21.898;2023-05-15T01:19:26;15.7;96.0
21121;DHT22;12519;43.318;21.898;2023-05-15T01:25:16;15.7;96.0
21121;DHT22;12519;43.318;21.898;2023-05-15T01:31:29;15.7;97.0
21121;DHT22;12519;43.318;21.898;2023-05-15T01:36:32;15.7;96.0
21121;DHT22;12519;43.318;21.898;2023-05-15T01:41:28;15.7;96.0
21121;DHT22;12519;43.318;21.898;2023-05-15T01:46:16;15.7;96.0
21121;DHT22;12519;43.318;21.898;2023-05-15T01:51:06;15.7;96.0
21121;DHT22;12519;43.318;21.898;2023-05-15T01:55:51;15.7;97.0
21121;DHT22;12519;43.318;21.898;2023-05-15T02:00:34;15.7;97.0
21121;DHT22;12519;43.318;21.898;2023-05-15T02:05:17;15.7;97.0
21121;DHT22;12519;43.318;21.898;2023-05-15T02:10:00;15.7;97.0
21121;DHT22;12519;43.318;21.898;2023-05-15T02:14:43;15.7;97.0
21121;DHT22;12519;43.318;21.898;2023-05-15T02:19:25;15.7;98.0
21121;DHT22;12519;43.318;21.898;2023-05-15T02:24:03;15.7;98.0
21121;DHT22;12519;43.318;21.898;2023-05-15T02:29:17;15.7;98.0
21121;DHT22;12519;43.318;21.898;2023-05-15T02:34:29;15.7;98.0
21121;DHT22;12519;43.318;21.898;2023-05-15T02:39:30;15.6;99.0
21121;DHT22;12519;43.318;21.898;2023-05-15T02:44:14;15.6;99.0
21121;DHT22;12519;43.318;21.898;2023-05-15T02:48:55;15.6;99.0
21121;DHT22;12519;43.318;21.898;2023-05-15T02:53:33;15.6;99.0
21121;DHT22;12519;43.318;21.898;2023-05-15T02:58:14;15.6;99.0
21121;DHT22;12519;43.318;21.898;2023-05-15T03:02:50;15.6;99.0
21121;DHT22;12519;43.318;21.898;2023-05-15T03:16:40;15.7;100.0
21121;DHT22;12519;43.318;21.898;2023-05-15T03:21:17;15.7;100.0
21121;DHT22;12519;43.318;21.898;2023-05-15T03:25:53;15.7;100.0
21121;DHT22;12519;43.318;21.898;2023-05-15T03:30:30;15.7;100.0
21121;DHT22;12519;43.318;21.898;2023-05-15T03:35:09;15.7;100.0
21121;DHT22;12519;43.318;21.898;2023-05-15T03:39:46;16.0;99.0
21121;DHT22;12519;43.318;21.898;2023-05-15T03:44:23;16.0;99.0
21121;DHT22;12519;43.318;21.898;2023-05-15T03:49:00;16.4;98.0
21121;DHT22;12519;43.318;21.898;2023-05-15T03:53:37;16.4;98.0
21121;DHT22;12519;43.318;21.898;2023-05-15T03:58:14;16.2;98.0
21121;DHT22;12519;43.318;21.898;2023-05-15T04:02:50;16.2;98.0
21121;DHT22;12519;43.318;21.898;2023-05-15T04:07:27;16.0;99.0
21121;DHT22;12519;43.318;21.898;2023-05-15T04:12:05;16.0;99.0
21121;DHT22;12519;43.318;21.898;2023-05-15T04:16:41;15.8;99.0
21121;DHT22;12519;43.318;21.898;2023-05-15T04:21:18;15.8;99.0
21121;DHT22;12519;43.318;21.898;2023-05-15T04:25:54;15.7;100.0
21121;DHT22;12519;43.318;21.898;2023-05-15T04:30:30;15.7;100.0
21121;DHT22;12519;43.318;21.898;2023-05-15T04:35:10;15.7;100.0
21121;DHT22;12519;43.318;21.898;2023-05-15T04:39:47;16.1;99.0
21121;DHT22;12519;43.318;21.898;2023-05-15T04:44:23;16.1;99.0
21121;DHT22;12519;43.318;21.898;2023-05-15T04:49:00;16.5;99.0
21121;DHT22;12519;43.318;21.898;2023-05-15T04:53:36;16.5;99.0
21121;DHT22;12519;43.318;21.898;2023-05-15T04:58:13;16.8;98.0
21121;DHT22;12519;43.318;21.898;2023-05-15T05:02:50;16.8;98.0
21121;DHT22;12519;43.318;21.898;2023-05-15T05:07:26;17.0;97.0
21121;DHT22;12519;43.318;21.898;2023-05-15T05:12:06;17.0;97.0
21121;DHT22;12519;43.318;21.898;2023-05-15T05:16:44;16.6;98.0
21121;DHT22;12519;43.318;21.898;2023-05-15T05:21:21;16.6;98.0
21121;DHT22;12519;43.318;21.898;2023-05-15T05:25:59;16.2;100.0
21121;DHT22;12519;43.318;21.898;2023-05-15T05:30:36;16.2;100.0
21121;DHT22;12519;43.318;21.898;2023-05-15T05:35:13;16.2;100.0
21121;DHT22;12519;43.318;21.898;2023-05-15T05:39:49;16.1;100.0
21121;DHT22;12519;43.318;21.898;2023-05-15T05:44:25;16.1;100.0
21121;DHT22;12519;43.318;21.898;2023-05-15T05:49:02;16.0;100.0
21121;DHT22;12519;43.318;21.898;2023-05-15T05:53:38;16.0;100.0
21121;DHT22;12519;43.318;21.898;2023-05-15T05:58:15;15.9;100.0
21121;DHT22;12519;43.318;21.898;2023-05-15T06:02:58;15.9;100.0
21121;DHT22;12519;43.318;21.898;2023-05-15T06:07:35;15.8;100.0
21121;DHT22;12519;43.318;21.898;2023-05-15T06:12:12;15.8;100.0
21121;DHT22;12519;43.318;21.898;2023-05-15T06:16:49;16.2;100.0
21121;DHT22;12519;43.318;21.898;2023-05-15T06:21:27;16.2;100.0
21121;DHT22;12519;43.318;21.898;2023-05-15T06:26:04;16.5;100.0
21121;DHT22;12519;43.318;21.898;2023-05-15T06:30:41;16.5;100.0
21121;DHT22;12519;43.318;21.898;2023-05-15T06:35:18;16.5;100.0
21121;DHT22;12519;43.318;21.898;2023-05-15T06:39:54;16.8;99.0
21121;DHT22;12519;43.318;21.898;2023-05-15T06:44:31;16.8;99.0
21121;DHT22;12519;43.318;21.898;2023-05-15T06:49:07;17.0;99.0
21121;DHT22;12519;43.318;21.898;2023-05-15T06:53:43;17.0;99.0
21121;DHT22;12519;43.318;21.898;2023-05-15T06:58:19;16.9;100.0
21121;DHT22;12519;43.318;21.898;2023-05-15T07:02:55;16.9;100.0
21121;DHT22;12519;43.318;21.898;2023-05-15T07:07:31;16.8;100.0
21121;DHT22;12519;43.318;21.898;2023-05-15T07:12:08;16.8;100.0
21121;DHT22;12519;43.318;21.898;2023-05-15T07:16:44;17.0;100.0
21121;DHT22;12519;43.318;21.898;2023-05-15T07:21:21;17.0;100.0
21121;DHT22;12519;43.318;21.898;2023-05-15T07:25:57;17.1;100.0
21121;DHT22;12519;43.318;21.898;2023-05-15T07:30:33;17.1;100.0
21121;DHT22;12519;43.318;21.898;2023-05-15T07:35:10;17.1;100.0
21121;DHT22;12519;43.318;21.898;2023-05-15T07:39:46;17.3;100.0
21121;DHT22;12519;43.318;21.898;2023-05-15T07:44:23;17.3;100.0
21121;DHT22;12519;43.318;21.898;2023-05-15T07:49:00;17.5;100.0
21121;DHT22;12519;43.318;21.898;2023-05-15T07:53:36;17.5;100.0
21121;DHT22;12519;43.318;21.898;2023-05-15T07:58:13;17.6;100.0
21121;DHT22;12519;43.318;21.898;2023-05-15T08:02:49;17.6;100.0
21121;DHT22;12519;43.318;21.898;2023-05-15T08:07:26;17.6;99.0
21121;DHT22;12519;43.318;21.898;2023-05-15T08:12:21;17.6;99.0
21121;DHT22;12519;43.318;21.898;2023-05-15T08:16:57;17.6;99.0
21121;DHT22;12519;43.318;21.898;2023-05-15T08:21:34;17.6;99.0
21121;DHT22;12519;43.318;21.898;2023-05-15T08:26:10;17.5;99.0
21121;DHT22;12519;43.318;21.898;2023-05-15T08:30:46;17.5;99.0
21121;DHT22;12519;43.318;21.898;2023-05-15T08:35:22;17.5;99.0
21121;DHT22;12519;43.318;21.898;2023-05-15T08:39:58;17.4;99.0
21121;DHT22;12519;43.318;21.898;2023-05-15T08:44:37;17.4;99.0
21121;DHT22;12519;43.318;21.898;2023-05-15T08:49:35;17.3;99.0
21121;DHT22;12519;43.318;21.898;2023-05-15T08:54:39;17.3;99.0
21121;DHT22;12519;43.318;21.898;2023-05-15T08:59:18;17.4;99.0
21121;DHT22;12519;43.318;21.898;2023-05-15T09:03:56;17.4;99.0
21121;DHT22;12519;43.318;21.898;2023-05-15T09:08:34;17.4;98.0
21121;DHT22;12519;43.318;21.898;2023-05-15T09:13:17;17.4;98.0
21121;DHT22;12519;43.318;21.898;2023-05-15T09:17:56;17.5;98.0
21121;DHT22;12519;43.318;21.898;2023-05-15T09:22:36;17.5;98.0
21121;DHT22;12519;43.318;21.898;2023-05-15T09:27:12;17.7;97.0
21121;DHT22;12519;43.318;21.898;2023-05-15T09:31:49;17.7;97.0
21121;DHT22;12519;43.318;21.898;2023-05-15T09:36:26;18.0;96.0
21121;DHT22;12519;43.318;21.898;2023-05-15T09:41:07;18.0;96.0
21121;DHT22;12519;43.318;21.898;2023-05-15T09:45:47;18.0;96.0
21121;DHT22;12519;43.318;21.898;2023-05-15T09:50:34;18.2;96.0
21121;DHT22;12519;43.318;21.898;2023-05-15T09:55:15;18.2;96.0
21121;DHT22;12519;43.318;21.898;2023-05-15T09:59:54;18.3;97.0
21121;DHT22;12519;43.318;21.898;2023-05-15T10:04:34;18.3;97.0
21121;DHT22;12519;43.318;21.898;2023-05-15T10:09:13;18.4;98.0
21121;DHT22;12519;43.318;21.898;2023-05-15T10:13:51;18.4;98.0
21121;DHT22;12519;43.318;21.898;2023-05-15T10:18:32;18.7;98.0
21121;DHT22;12519;43.318;21.898;2023-05-15T10:23:21;18.7;98.0
21121;DHT22;12519;43.318;21.898;2023-05-15T10:28:01;19.0;97.0
21121;DHT22;12519;43.318;21.898;2023-05-15T10:32:48;19.0;97.0
21121;DHT22;12519;43.318;21.898;2023-05-15T10:37:29;19.4;95.0
21121;DHT22;12519;43.318;21.898;2023-05-15T10:42:12;19.4;95.0
21121;DHT22;12519;43.318;21.898;2023-05-15T10:46:53;19.9;93.0
21121;DHT22;12519;43.318;21.898;2023-05-15T10:51:32;19.9;93.0
21121;DHT22;12519;43.318;21.898;2023-05-15T10:56:14;20.2;92.0
21121;DHT22;12519;43.318;21.898;2023-05-15T11:00:51;20.2;92.0
21121;DHT22;12519;43.318;21.898;2023-05-15T11:05:27;20.2;92.0
21121;DHT22;12519;43.318;21.898;2023-05-15T11:10:36;20.5;90.0
21121;DHT22;12519;43.318;21.898;2023-05-15T11:15:20;20.5;90.0
21121;DHT22;12519;43.318;21.898;2023-05-15T11:19:59;20.6;89.0
21121;DHT22;12519;43.318;21.898;2023-05-15T11:24:54;20.6;89.0
21121;DHT22;12519;43.318;21.898;2023-05-15T11:30:13;20.8;89.0
21121;DHT22;12519;43.318;21.898;2023-05-15T11:34:59;20.8;89.0
21121;DHT22;12519;43.318;21.898;2023-05-15T11:39:38;20.9;88.0
21121;DHT22;12519;43.318;21.898;2023-05-15T11:44:21;20.9;88.0
21121;DHT22;12519;43.318;21.898;2023-05-15T11:49:00;21.0;87.0
21121;DHT22;12519;43.318;21.898;2023-05-15T11:53:39;21.0;87.0
21121;DHT22;12519;43.318;21.898;2023-05-15T11:58:23;21.2;86.0
21121;DHT22;12519;43.318;21.898;2023-05-15T12:03:02;21.2;86.0
21121;DHT22;12519;43.318;21.898;2023-05-15T12:07:43;21.3;85.0
21121;DHT22;12519;43.318;21.898;2023-05-15T12:12:20;21.3;85.0
21121;DHT22;12519;43.318;21.898;2023-05-15T12:16:59;21.5;85.0
21121;DHT22;12519;43.318;21.898;2023-05-15T12:21:36;21.5;85.0
21121;DHT22;12519;43.318;21.898;2023-05-15T12:26:13;21.5;85.0
21121;DHT22;12519;43.318;21.898;2023-05-15T12:30:50;21.7;85.0
21121;DHT22;12519;43.318;21.898;2023-05-15T12:35:28;21.7;85.0
21121;DHT22;12519;43.318;21.898;2023-05-15T12:40:08;21.7;84.0
21121;DHT22;12519;43.318;21.898;2023-05-15T12:44:50;21.7;84.0
21121;DHT22;12519;43.318;21.898;2023-05-15T12:49:27;21.7;84.0
21121;DHT22;12519;43.318;21.898;2023-05-15T12:54:03;21.7;84.0
21121;DHT22;12519;43.318;21.898;2023-05-15T12:58:40;21.6;84.0
21121;DHT22;12519;43.318;21.898;2023-05-15T13:03:20;21.6;84.0
21121;DHT22;12519;43.318;21.898;2023-05-15T13:07:59;21.6;84.0
21121;DHT22;12519;43.318;21.898;2023-05-15T13:12:45;21.6;84.0
21121;DHT22;12519;43.318;21.898;2023-05-15T13:17:22;21.6;83.0
21121;DHT22;12519;43.318;21.898;2023-05-15T13:21:59;21.6;83.0
21121;DHT22;12519;43.318;21.898;2023-05-15T13:26:36;21.6;83.0
21121;DHT22;12519;43.318;21.898;2023-05-15T13:31:13;21.6;83.0
21121;DHT22;12519;43.318;21.898;2023-05-15T13:35:49;21.6;83.0
21121;DHT22;12519;43.318;21.898;2023-05-15T13:40:25;21.4;84.0
21121;DHT22;12519;43.318;21.898;2023-05-15T13:45:05;21.4;84.0
21121;DHT22;12519;43.318;21.898;2023-05-15T13:49:42;21.1;84.0
21121;DHT22;12519;43.318;21.898;2023-05-15T13:54:20;21.1;84.0
21121;DHT22;12519;43.318;21.898;2023-05-15T13:58:57;21.0;84.0
21121;DHT22;12519;43.318;21.898;2023-05-15T14:03:33;21.0;84.0
21121;DHT22;12519;43.318;21.898;2023-05-15T14:08:10;20.8;84.0
21121;DHT22;12519;43.318;21.898;2023-05-15T14:12:46;20.8;84.0
21121;DHT22;12519;43.318;21.898;2023-05-15T14:17:24;20.8;85.0
21121;DHT22;12519;43.318;21.898;2023-05-15T14:22:00;20.8;85.0
21121;DHT22;12519;43.318;21.898;2023-05-15T14:26:37;20.7;85.0
21121;DHT22;12519;43.318;21.898;2023-05-15T14:31:14;20.7;85.0
21121;DHT22;12519;43.318;21.898;2023-05-15T14:35:51;20.7;85.0
21121;DHT22;12519;43.318;21.898;2023-05-15T14:40:28;20.8;85.0
21121;DHT22;12519;43.318;21.898;2023-05-15T14:45:07;20.8;85.0
21121;DHT22;12519;43.318;21.898;2023-05-15T14:49:46;21.0;84.0
21121;DHT22;12519;43.318;21.898;2023-05-15T14:54:22;21.0;84.0
21121;DHT22;12519;43.318;21.898;2023-05-15T14:58:59;21.1;84.0
21121;DHT22;12519;43.318;21.898;2023-05-15T15:03:35;21.1;84.0
21121;DHT22;12519;43.318;21.898;2023-05-15T15:08:12;21.2;84.0
21121;DHT22;12519;43.318;21.898;2023-05-15T15:12:49;21.2;84.0
21121;DHT22;12519;43.318;21.898;2023-05-15T15:17:27;21.0;84.0
21121;DHT22;12519;43.318;21.898;2023-05-15T15:22:04;21.0;84.0
21121;DHT22;12519;43.318;21.898;2023-05-15T15:26:40;21.0;84.0
21121;DHT22;12519;43.318;21.898;2023-05-15T15:31:17;20.9;85.0
21121;DHT22;12519;43.318;21.898;2023-05-15T15:35:54;20.9;85.0
21121;DHT22;12519;43.318;21.898;2023-05-15T15:40:31;20.8;85.0
21121;DHT22;12519;43.318;21.898;2023-05-15T15:45:09;20.8;85.0
21121;DHT22;12519;43.318;21.898;2023-05-15T15:49:46;20.8;85.0
21121;DHT22;12519;43.318;21.898;2023-05-15T15:54:27;20.8;85.0
21121;DHT22;12519;43.318;21.898;2023-05-15T15:59:03;20.7;86.0
21121;DHT22;12519;43.318;21.898;2023-05-15T16:03:40;20.7;86.0
21121;DHT22;12519;43.318;21.898;2023-05-15T16:08:16;20.6;86.0
21121;DHT22;12519;43.318;21.898;2023-05-15T16:12:53;20.6;86.0
21121;DHT22;12519;43.318;21.898;2023-05-15T16:17:29;20.6;86.0
21121;DHT22;12519;43.318;21.898;2023-05-15T16:22:05;20.6;86.0
21121;DHT22;12519;43.318;21.898;2023-05-15T16:26:41;20.6;86.0
21121;DHT22;12519;43.318;21.898;2023-05-15T16:31:18;20.5;87.0
21121;DHT22;12519;43.318;21.898;2023-05-15T16:35:54;20.5;87.0
21121;DHT22;12519;43.318;21.898;2023-05-15T16:40:31;20.4;87.0
21121;DHT22;12519;43.318;21.898;2023-05-15T16:45:09;20.4;87.0
21121;DHT22;12519;43.318;21.898;2023-05-15T16:49:45;20.4;87.0
21121;DHT22;12519;43.318;21.898;2023-05-15T16:54:22;20.4;87.0
21121;DHT22;12519;43.318;21.898;2023-05-15T16:58:59;20.4;87.0
21121;DHT22;12519;43.318;21.898;2023-05-15T17:03:36;20.4;87.0
21121;DHT22;12519;43.318;21.898;2023-05-15T17:08:12;20.3;88.0
21121;DHT22;12519;43.318;21.898;2023-05-15T17:12:49;20.3;88.0
21121;DHT22;12519;43.318;21.898;2023-05-15T17:17:27;20.2;88.0
21121;DHT22;12519;43.318;21.898;2023-05-15T17:22:04;20.2;88.0
21121;DHT22;12519;43.318;21.898;2023-05-15T17:26:40;20.2;88.0
21121;DHT22;12519;43.318;21.898;2023-05-15T17:31:17;20.2;88.0
21121;DHT22;12519;43.318;21.898;2023-05-15T17:35:53;20.2;88.0
21121;DHT22;12519;43.318;21.898;2023-05-15T17:40:29;20.1;88.0
21121;DHT22;12519;43.318;21.898;2023-05-15T17:45:07;20.1;88.0
21121;DHT22;12519;43.318;21.898;2023-05-15T17:49:45;20.0;88.0
21121;DHT22;12519;43.318;21.898;2023-05-15T17:54:22;20.0;88.0
21121;DHT22;12519;43.318;21.898;2023-05-15T17:58:58;19.9;88.0
21121;DHT22;12519;43.318;21.898;2023-05-15T18:03:35;19.9;88.0
21121;DHT22;12519;43.318;21.898;2023-05-15T18:08:11;19.8;88.0
21121;DHT22;12519;43.318;21.898;2023-05-15T18:12:49;19.8;88.0
21121;DHT22;12519;43.318;21.898;2023-05-15T18:17:25;19.8;88.0
21121;DHT22;12519;43.318;21.898;2023-05-15T18:22:04;19.8;88.0
21121;DHT22;12519;43.318;21.898;2023-05-15T18:26:40;19.8;88.0
21121;DHT22;12519;43.318;21.898;2023-05-15T18:31:17;19.7;88.0
21121;DHT22;12519;43.318;21.898;2023-05-15T18:35:54;19.7;88.0
21121;DHT22;12519;43.318;21.898;2023-05-15T18:40:31;19.6;89.0
21121;DHT22;12519;43.318;21.898;2023-05-15T18:45:08;19.6;89.0
21121;DHT22;12519;43.318;21.898;2023-05-15T18:49:46;19.6;89.0
21121;DHT22;12519;43.318;21.898;2023-05-15T18:54:22;19.6;89.0
21121;DHT22;12519;43.318;21.898;2023-05-15T18:58:59;19.6;89.0
21121;DHT22;12519;43.318;21.898;2023-05-15T19:03:35;19.6;89.0
21121;DHT22;12519;43.318;21.898;2023-05-15T19:08:11;19.5;89.0
21121;DHT22;12519;43.318;21.898;2023-05-15T19:12:47;19.5;89.0
21121;DHT22;12519;43.318;21.898;2023-05-15T19:17:24;19.4;90.0
21121;DHT22;12519;43.318;21.898;2023-05-15T19:22:00;19.4;90.0
21121;DHT22;12519;43.318;21.898;2023-05-15T19:26:36;19.4;90.0
21121;DHT22;12519;43.318;21.898;2023-05-15T19:31:13;19.3;90.0
21121;DHT22;12519;43.318;21.898;2023-05-15T19:35:50;19.3;90.0
21121;DHT22;12519;43.318;21.898;2023-05-15T19:40:26;19.3;90.0
21121;DHT22;12519;43.318;21.898;2023-05-15T19:45:05;19.3;90.0
21121;DHT22;12519;43.318;21.898;2023-05-15T19:49:45;19.3;90.0
21121;DHT22;12519;43.318;21.898;2023-05-15T19:54:22;19.3;90.0
21121;DHT22;12519;43.318;21.898;2023-05-15T19:58:59;19.2;90.0
21121;DHT22;12519;43.318;21.898;2023-05-15T20:03:35;19.2;90.0
21121;DHT22;12519;43.318;21.898;2023-05-15T20:08:12;19.2;90.0
21121;DHT22;12519;43.318;21.898;2023-05-15T20:12:48;19.2;90.0
21121;DHT22;12519;43.318;21.898;2023-05-15T20:17:26;19.2;90.0
21121;DHT22;12519;43.318;21.898;2023-05-15T20:22:02;19.2;90.0
21121;DHT22;12519;43.318;21.898;2023-05-15T20:26:39;19.2;90.0
21121;DHT22;12519;43.318;21.898;2023-05-15T20:31:15;19.1;90.0
21121;DHT22;12519;43.318;21.898;2023-05-15T20:35:52;19.1;90.0
21121;DHT22;12519;43.318;21.898;2023-05-15T20:40:29;19.0;90.0
21121;DHT22;12519;43.318;21.898;2023-05-15T20:45:07;19.0;90.0
21121;DHT22;12519;43.318;21.898;2023-05-15T20:49:45;19.0;90.0
21121;DHT22;12519;43.318;21.898;2023-05-15T20:54:22;19.0;90.0
21121;DHT22;12519;43.318;21.898;2023-05-15T20:58:59;19.0;90.0
21121;DHT22;12519;43.318;21.898;2023-05-15T21:03:35;19.0;90.0
21121;DHT22;12519;43.318;21.898;2023-05-15T21:08:12;18.9;90.0
21121;DHT22;12519;43.318;21.898;2023-05-15T21:12:49;18.9;90.0
21121;DHT22;12519;43.318;21.898;2023-05-15T21:17:25;18.9;90.0
21121;DHT22;12519;43.318;21.898;2023-05-15T21:22:03;18.8;90.0
21121;DHT22;12519;43.318;21.898;2023-05-15T21:26:41;18.8;90.0
21121;DHT22;12519;43.318;21.898;2023-05-15T21:31:18;18.8;90.0
21121;DHT22;12519;43.318;21.898;2023-05-15T21:35:54;18.8;90.0
21121;DHT22;12519;43.318;21.898;2023-05-15T21:40:30;18.8;90.0
21121;DHT22;12519;43.318;21.898;2023-05-15T21:45:07;18.8;90.0
21121;DHT22;12519;43.318;21.898;2023-05-15T21:49:44;18.7;90.0
21121;DHT22;12519;43.318;21.898;2023-05-15T21:54:20;18.7;90.0
21121;DHT22;12519;43.318;21.898;2023-05-15T21:58:57;18.6;90.0
21121;DHT22;12519;43.318;21.898;2023-05-15T22:03:33;18.6;90.0
21121;DHT22;12519;43.318;21.898;2023-05-15T22:08:10;18.6;90.0
21121;DHT22;12519;43.318;21.898;2023-05-15T22:12:46;18.6;90.0
21121;DHT22;12519;43.318;21.898;2023-05-15T22:17:23;18.6;90.0
21121;DHT22;12519;43.318;21.898;2023-05-15T22:22:00;18.6;90.0
21121;DHT22;12519;43.318;21.898;2023-05-15T22:26:37;18.6;90.0
21121;DHT22;12519;43.318;21.898;2023-05-15T22:31:14;18.6;90.0
21121;DHT22;12519;43.318;21.898;2023-05-15T22:35:50;18.6;90.0
21121;DHT22;12519;43.318;21.898;2023-05-15T22:40:27;18.6;90.0
21121;DHT22;12519;43.318;21.898;2023-05-15T22:45:06;18.6;90.0
21121;DHT22;12519;43.318;21.898;2023-05-15T22:49:45;18.5;91.0
21121;DHT22;12519;43.318;21.898;2023-05-15T22:54:22;18.5;91.0
21121;DHT22;12519;43.318;21.898;2023-05-15T22:58:59;18.5;91.0
21121;DHT22;12519;43.318;21.898;2023-05-15T23:03:35;18.5;91.0
21121;DHT22;12519;43.318;21.898;2023-05-15T23:08:11;18.5;91.0
21121;DHT22;12519;43.318;21.898;2023-05-15T23:12:47;18.5;91.0
21121;DHT22;12519;43.318;21.898;2023-05-15T23:17:23;18.5;91.0
21121;DHT22;12519;43.318;21.898;2023-05-15T23:22:00;18.4;91.0
21121;DHT22;12519;43.318;21.898;2023-05-15T23:26:36;18.4;91.0
21121;DHT22;12519;43.318;21.898;2023-05-15T23:31:13;18.4;91.0
21121;DHT22;12519;43.318;21.898;2023-05-15T23:35:50;18.4;91.0
21121;DHT22;12519;43.318;21.898;2023-05-15T23:40:27;18.4;92.0
21121;DHT22;12519;43.318;21.898;2023-05-15T23:45:05;18.4;92.0
21121;DHT22;12519;43.318;21.898;2023-05-15T23:49:46;18.3;92.0
21121;DHT22;12519;43.318;21.898;2023-05-15T23:54:23;18.3;92.0
21121;DHT22;12519;43.318;21.898;2023-05-15T23:59:00;18.3;92.0
